createdAt,value
2017-05-15T00:01:51.257Z,91.50
2017-05-15T00:04:18.035Z,91.60
2017-05-15T00:06:44.825Z,91.60
2017-05-15T00:09:11.621Z,91.90
2017-05-15T00:11:38.384Z,91.90
2017-05-15T00:14:05.145Z,92.10
2017-05-15T00:16:31.920Z,92.10
2017-05-15T00:18:58.688Z,92.00
2017-05-15T00:21:25.489Z,91.90
2017-05-15T00:23:52.396Z,91.70
2017-05-15T00:26:19.151Z,92.00
2017-05-15T00:28:45.931Z,92.10
2017-05-15T00:31:12.700Z,92.00
2017-05-15T00:33:39.500Z,92.00
2017-05-15T00:36:06.263Z,92.10
2017-05-15T00:38:33.024Z,91.80
2017-05-15T00:41:00.537Z,91.80
2017-05-15T00:43:27.296Z,92.10
2017-05-15T00:45:54.104Z,92.20
2017-05-15T00:48:20.884Z,91.90
2017-05-15T00:50:47.645Z,92.20
2017-05-15T00:53:15.161Z,92.70
2017-05-15T00:55:41.992Z,92.60
2017-05-15T00:58:08.780Z,92.80
2017-05-15T01:00:35.538Z,92.60
2017-05-15T01:03:02.312Z,93.00
2017-05-15T01:05:29.100Z,93.00
2017-05-15T01:07:55.862Z,93.20
2017-05-15T01:10:23.408Z,93.10
2017-05-15T01:12:50.181Z,93.20
2017-05-15T01:15:16.952Z,93.00
2017-05-15T01:17:43.719Z,93.00
2017-05-15T01:20:10.486Z,92.90
2017-05-15T01:22:38.025Z,92.70
2017-05-15T01:25:04.805Z,92.60
2017-05-15T01:27:31.564Z,92.40
2017-05-15T01:29:58.383Z,92.50
2017-05-15T01:32:24.412Z,92.50
2017-05-15T01:34:51.244Z,92.30
2017-05-15T01:37:18.806Z,92.50
2017-05-15T01:39:46.305Z,92.50
2017-05-15T01:42:13.092Z,92.40
2017-05-15T01:44:39.861Z,93.00
2017-05-15T01:47:06.661Z,92.60
2017-05-15T01:49:33.447Z,92.70
2017-05-15T01:52:00.207Z,92.80
2017-05-15T01:54:26.987Z,92.40
2017-05-15T01:56:53.752Z,92.40
2017-05-15T01:59:21.269Z,92.30
2017-05-15T02:01:48.046Z,92.20
2017-05-15T02:04:14.866Z,92.80
2017-05-15T02:06:41.653Z,92.00
2017-05-15T02:09:08.421Z,92.00
2017-05-15T02:11:35.195Z,91.80
2017-05-15T02:14:02.175Z,92.10
2017-05-15T02:16:29.739Z,92.10
2017-05-15T02:18:57.265Z,91.70
2017-05-15T02:21:24.037Z,91.50
2017-05-15T02:23:51.597Z,91.30
2017-05-15T02:26:18.407Z,91.70
2017-05-15T02:28:45.238Z,92.00
2017-05-15T02:31:12.048Z,91.90
2017-05-15T02:33:38.831Z,91.70
2017-05-15T02:36:05.636Z,91.90
2017-05-15T02:38:32.430Z,92.20
2017-05-15T02:40:59.264Z,92.60
2017-05-15T02:43:26.064Z,92.60
2017-05-15T02:45:52.848Z,92.90
2017-05-15T02:48:19.665Z,92.70
2017-05-15T02:50:46.440Z,93.20
2017-05-15T02:53:13.332Z,93.20
2017-05-15T02:55:40.126Z,92.90
2017-05-15T02:58:06.925Z,92.90
2017-05-15T03:00:33.737Z,92.70
2017-05-15T03:03:01.325Z,92.50
2017-05-15T03:05:28.141Z,92.70
2017-05-15T03:07:55.767Z,92.30
2017-05-15T03:10:22.569Z,92.50
2017-05-15T03:12:49.373Z,92.70
2017-05-15T03:15:16.168Z,92.30
2017-05-15T03:17:42.964Z,92.60
2017-05-15T03:20:09.787Z,92.20
2017-05-15T03:22:36.592Z,92.30
2017-05-15T03:25:03.373Z,92.80
2017-05-15T03:27:30.149Z,92.40
2017-05-15T03:29:57.653Z,92.60
2017-05-15T03:32:24.421Z,92.80
2017-05-15T03:34:51.221Z,93.00
2017-05-15T03:37:17.995Z,92.90
2017-05-15T03:39:44.772Z,92.70
2017-05-15T03:42:12.554Z,93.00
2017-05-15T03:44:39.316Z,92.80
2017-05-15T03:47:06.063Z,93.40
2017-05-15T03:49:32.846Z,93.80
2017-05-15T03:51:59.612Z,94.30
2017-05-15T03:54:27.152Z,94.40
2017-05-15T03:56:53.960Z,94.20
2017-05-15T03:59:20.733Z,94.00
2017-05-15T04:01:47.512Z,94.60
2017-05-15T04:04:14.273Z,94.50
2017-05-15T04:06:41.071Z,94.40
2017-05-15T04:09:07.824Z,93.90
2017-05-15T04:11:34.605Z,93.20
2017-05-15T04:14:01.373Z,92.70
2017-05-15T04:16:28.144Z,92.40
2017-05-15T04:18:54.928Z,91.40
2017-05-15T04:21:21.689Z,90.80
2017-05-15T04:23:48.520Z,91.30
2017-05-15T04:26:15.631Z,90.60
2017-05-15T04:28:43.171Z,90.60
2017-05-15T04:31:10.048Z,90.30
2017-05-15T04:33:36.860Z,90.30
2017-05-15T04:36:03.654Z,89.80
2017-05-15T04:38:30.527Z,89.10
2017-05-15T04:40:57.342Z,89.60
2017-05-15T04:43:24.121Z,89.30
2017-05-15T04:45:50.919Z,88.70
2017-05-15T04:48:17.719Z,90.00
2017-05-15T04:50:44.510Z,88.80
2017-05-15T04:53:11.300Z,89.10
2017-05-15T04:55:38.122Z,89.00
2017-05-15T04:58:04.928Z,87.40
2017-05-15T05:00:31.715Z,86.00
2017-05-15T05:02:58.541Z,85.00
2017-05-15T05:05:25.644Z,86.40
2017-05-15T05:07:53.180Z,86.40
2017-05-15T05:10:19.989Z,86.70
2017-05-15T05:12:46.789Z,87.40
2017-05-15T05:15:14.324Z,87.60
2017-05-15T05:17:41.164Z,86.70
2017-05-15T05:20:30.012Z,86.40
2017-05-15T05:22:58.840Z,86.40
2017-05-15T05:25:33.350Z,86.20
2017-05-15T05:28:12.604Z,86.50
2017-05-15T05:30:44.985Z,84.20
2017-05-15T05:33:20.773Z,83.40
2017-05-15T05:35:54.834Z,80.00
2017-05-15T05:38:38.316Z,80.40
2017-05-15T05:41:25.120Z,78.00
2017-05-15T05:43:53.801Z,80.20
2017-05-15T05:46:20.593Z,79.30
2017-05-15T05:48:47.402Z,75.40
2017-05-15T05:51:14.235Z,76.70
2017-05-15T05:53:41.046Z,75.30
2017-05-15T05:56:20.207Z,74.80
2017-05-15T05:58:47.001Z,75.10
2017-05-15T06:01:26.178Z,74.30
2017-05-15T06:04:15.104Z,74.60
2017-05-15T06:06:54.269Z,76.00
2017-05-15T06:09:33.400Z,74.50
2017-05-15T06:12:12.737Z,73.20
2017-05-15T06:14:51.936Z,71.30
2017-05-15T06:17:32.209Z,71.60
2017-05-15T06:19:59.600Z,70.00
2017-05-15T06:22:38.732Z,67.50
2017-05-15T06:25:17.961Z,70.40
2017-05-15T06:27:44.732Z,65.20
2017-05-15T06:30:11.474Z,66.70
2017-05-15T06:32:38.214Z,66.50
2017-05-15T06:35:04.996Z,65.00
2017-05-15T06:37:35.396Z,66.60
2017-05-15T06:40:27.336Z,65.30
2017-05-15T06:42:54.073Z,64.50
2017-05-15T06:45:20.809Z,62.60
2017-05-15T06:47:47.592Z,61.60
2017-05-15T06:50:14.337Z,61.30
2017-05-15T06:52:41.076Z,63.60
2017-05-15T06:55:07.847Z,62.00
2017-05-15T06:57:34.580Z,63.80
2017-05-15T07:00:01.324Z,62.90
2017-05-15T07:02:28.095Z,62.50
2017-05-15T07:04:54.829Z,61.20
2017-05-15T07:07:21.481Z,58.90
2017-05-15T07:09:48.316Z,59.60
2017-05-15T07:12:15.096Z,58.20
2017-05-15T07:14:42.638Z,57.80
2017-05-15T07:17:09.457Z,56.00
2017-05-15T07:19:36.253Z,57.00
2017-05-15T07:22:03.038Z,56.20
2017-05-15T07:24:29.841Z,55.70
2017-05-15T07:26:56.608Z,53.80
2017-05-15T07:29:23.816Z,54.10
2017-05-15T07:31:51.350Z,54.00
2017-05-15T07:34:18.108Z,53.00
2017-05-15T07:36:44.893Z,53.70
2017-05-15T07:39:11.692Z,53.40
2017-05-15T07:41:38.456Z,54.70
2017-05-15T07:44:06.220Z,54.70
2017-05-15T07:46:33.044Z,54.80
2017-05-15T07:48:59.820Z,52.40
2017-05-15T07:51:26.589Z,50.60
2017-05-15T07:53:53.386Z,52.30
2017-05-15T07:56:20.902Z,51.50
2017-05-15T07:58:47.661Z,48.60
2017-05-15T08:01:14.524Z,48.50
2017-05-15T08:03:42.044Z,48.10
2017-05-15T08:06:08.818Z,47.30
2017-05-15T08:08:35.612Z,48.10
2017-05-15T08:11:02.390Z,48.70
2017-05-15T08:13:29.167Z,48.90
2017-05-15T08:15:56.707Z,48.80
2017-05-15T08:18:23.472Z,46.00
2017-05-15T08:20:50.239Z,49.00
2017-05-15T08:23:17.059Z,48.00
2017-05-15T08:25:43.829Z,44.50
2017-05-15T08:28:10.584Z,42.10
2017-05-15T08:30:37.395Z,41.20
2017-05-15T08:33:04.169Z,39.30
2017-05-15T08:35:30.929Z,41.30
2017-05-15T08:37:57.719Z,43.30
2017-05-15T08:40:24.482Z,43.50
2017-05-15T08:42:51.259Z,41.60
2017-05-15T08:45:18.056Z,41.20
2017-05-15T08:47:44.825Z,39.90
2017-05-15T08:50:11.589Z,39.10
2017-05-15T08:52:38.389Z,38.70
2017-05-15T08:55:05.154Z,39.50
2017-05-15T08:57:31.981Z,39.50
2017-05-15T08:59:58.772Z,38.50
2017-05-15T09:02:26.277Z,42.50
2017-05-15T09:04:53.048Z,43.50
2017-05-15T09:07:19.849Z,40.00
2017-05-15T09:09:46.613Z,39.80
2017-05-15T09:12:13.371Z,38.70
2017-05-15T09:14:40.163Z,36.30
2017-05-15T09:17:06.928Z,38.10
2017-05-15T09:19:33.712Z,36.30
2017-05-15T09:22:00.790Z,37.90
2017-05-15T09:24:28.333Z,36.20
2017-05-15T09:26:55.877Z,38.90
2017-05-15T09:29:22.679Z,37.90
2017-05-15T09:31:49.464Z,36.60
2017-05-15T09:34:16.243Z,37.80
2017-05-15T09:36:43.388Z,37.70
2017-05-15T09:39:10.175Z,39.60
2017-05-15T09:41:36.956Z,37.40
2017-05-15T09:44:04.518Z,37.20
2017-05-15T09:46:31.298Z,39.80
2017-05-15T09:48:58.117Z,36.70
2017-05-15T09:51:25.664Z,37.70
2017-05-15T09:53:53.181Z,39.10
2017-05-15T09:56:19.960Z,40.50
2017-05-15T09:58:46.773Z,38.10
2017-05-15T10:01:13.544Z,37.00
2017-05-15T10:03:40.330Z,35.70
2017-05-15T10:06:07.154Z,37.10
2017-05-15T10:08:33.936Z,38.60
2017-05-15T10:11:00.757Z,38.20
2017-05-15T10:13:27.556Z,39.00
2017-05-15T10:15:54.338Z,40.20
2017-05-15T10:18:21.123Z,39.00
2017-05-15T10:20:47.937Z,35.90
2017-05-15T10:23:14.738Z,37.40
2017-05-15T10:25:42.272Z,37.70
2017-05-15T10:28:09.089Z,37.80
2017-05-15T10:30:35.885Z,40.00
2017-05-15T10:33:03.407Z,39.80
2017-05-15T10:35:30.220Z,39.10
2017-05-15T10:37:57.344Z,40.30
2017-05-15T10:40:24.864Z,39.20
2017-05-15T10:42:51.684Z,37.50
2017-05-15T10:45:18.484Z,37.50
2017-05-15T10:47:46.016Z,38.20
2017-05-15T10:50:12.838Z,38.90
2017-05-15T10:52:39.673Z,35.90
2017-05-15T10:55:06.456Z,34.80
2017-05-15T10:57:33.279Z,35.40
2017-05-15T11:00:00.068Z,37.20
2017-05-15T11:02:27.583Z,37.40
2017-05-15T11:04:54.400Z,35.70
2017-05-15T11:07:21.186Z,35.50
2017-05-15T11:09:47.977Z,35.00
2017-05-15T11:12:14.796Z,32.70
2017-05-15T11:14:41.596Z,32.80
2017-05-15T11:17:08.413Z,35.40
2017-05-15T11:19:35.249Z,34.90
2017-05-15T11:22:02.045Z,35.40
2017-05-15T11:24:28.844Z,34.90
2017-05-15T11:26:55.676Z,33.30
2017-05-15T11:29:22.449Z,33.90
2017-05-15T11:31:49.240Z,29.80
2017-05-15T11:34:16.760Z,29.70
2017-05-15T11:36:43.537Z,33.00
2017-05-15T11:39:11.094Z,31.10
2017-05-15T11:41:38.632Z,31.20
2017-05-15T11:44:05.405Z,33.00
2017-05-15T11:46:32.965Z,30.90
2017-05-15T11:49:00.485Z,30.90
2017-05-15T11:51:27.292Z,32.10
2017-05-15T11:53:54.078Z,33.10
2017-05-15T11:56:20.860Z,33.80
2017-05-15T11:58:47.657Z,34.40
2017-05-15T12:01:14.444Z,33.50
2017-05-15T12:03:41.270Z,35.40
2017-05-15T12:06:08.792Z,32.10
2017-05-15T12:08:35.609Z,32.90
2017-05-15T12:11:02.404Z,30.50
2017-05-15T12:13:29.172Z,31.80
2017-05-15T12:15:56.220Z,29.40
2017-05-15T12:18:22.988Z,29.80
2017-05-15T12:20:49.801Z,30.10
2017-05-15T12:23:17.376Z,32.00
2017-05-15T12:25:44.389Z,31.00
2017-05-15T12:28:11.213Z,29.90
2017-05-15T12:30:38.016Z,29.30
2017-05-15T12:33:04.834Z,29.30
2017-05-15T12:35:32.384Z,29.20
2017-05-15T12:37:59.185Z,28.30
2017-05-15T12:40:26.167Z,27.40
2017-05-15T12:42:53.726Z,29.10
2017-05-15T12:45:20.538Z,28.20
2017-05-15T12:47:47.370Z,28.30
2017-05-15T12:50:14.176Z,28.60
2017-05-15T12:52:41.739Z,29.30
2017-05-15T12:55:08.544Z,29.50
2017-05-15T12:57:35.341Z,29.60
2017-05-15T13:00:02.165Z,29.90
2017-05-15T13:02:28.958Z,27.70
2017-05-15T13:04:55.802Z,29.50
2017-05-15T13:07:22.901Z,29.90
2017-05-15T13:09:50.424Z,32.10
2017-05-15T13:12:17.217Z,31.40
2017-05-15T13:14:44.142Z,30.00
2017-05-15T13:17:11.704Z,30.90
2017-05-15T13:19:39.232Z,30.00
2017-05-15T13:22:06.069Z,29.60
2017-05-15T13:24:32.852Z,29.70
2017-05-15T13:27:00.350Z,29.20
2017-05-15T13:29:27.156Z,31.80
2017-05-15T13:31:54.664Z,30.00
2017-05-15T13:34:21.428Z,30.80
2017-05-15T13:36:48.197Z,28.80
2017-05-15T13:39:15.701Z,28.30
2017-05-15T13:41:42.542Z,29.60
2017-05-15T13:44:09.304Z,30.70
2017-05-15T13:46:36.069Z,31.40
2017-05-15T13:49:02.861Z,29.80
2017-05-15T13:51:29.615Z,29.80
2017-05-15T13:53:56.413Z,29.40
2017-05-15T13:56:23.920Z,29.50
2017-05-15T13:58:50.692Z,30.40
2017-05-15T14:01:17.466Z,31.70
2017-05-15T14:03:44.248Z,34.40
2017-05-15T14:06:11.176Z,33.80
2017-05-15T14:08:37.941Z,32.10
2017-05-15T14:11:04.704Z,34.20
2017-05-15T14:13:31.491Z,33.80
2017-05-15T14:15:58.521Z,31.60
2017-05-15T14:18:26.057Z,32.80
2017-05-15T14:20:53.011Z,32.60
2017-05-15T14:23:20.570Z,32.70
2017-05-15T14:25:47.376Z,33.50
2017-05-15T14:28:14.164Z,32.30
2017-05-15T14:30:42.016Z,33.60
2017-05-15T14:33:08.945Z,33.20
2017-05-15T14:35:35.972Z,32.50
2017-05-15T14:38:02.792Z,33.60
2017-05-15T14:40:29.569Z,32.80
2017-05-15T14:42:56.376Z,33.60
2017-05-15T14:45:23.169Z,34.00
2017-05-15T14:47:49.964Z,32.30
2017-05-15T14:50:16.748Z,33.40
2017-05-15T14:52:43.534Z,33.10
2017-05-15T14:55:10.340Z,31.20
2017-05-15T14:57:37.175Z,30.90
2017-05-15T15:00:03.961Z,30.70
2017-05-15T15:02:31.498Z,30.60
2017-05-15T15:04:58.284Z,29.80
2017-05-15T15:07:25.219Z,30.00
2017-05-15T15:09:52.004Z,31.30
2017-05-15T15:12:18.795Z,31.20
2017-05-15T15:14:46.328Z,31.30
2017-05-15T15:17:13.117Z,31.70
2017-05-15T15:19:39.942Z,31.60
2017-05-15T15:22:07.472Z,30.50
2017-05-15T15:24:34.250Z,31.80
2017-05-15T15:27:01.022Z,31.80
2017-05-15T15:29:27.784Z,30.70
2017-05-15T15:31:54.553Z,30.60
2017-05-15T15:34:22.063Z,31.00
2017-05-15T15:36:48.830Z,33.50
2017-05-15T15:39:15.600Z,31.00
2017-05-15T15:41:43.163Z,30.30
2017-05-15T15:44:10.661Z,30.90
2017-05-15T15:46:37.425Z,31.40
2017-05-15T15:49:04.216Z,30.40
2017-05-15T15:51:31.709Z,30.60
2017-05-15T15:53:58.500Z,30.90
2017-05-15T15:56:26.000Z,31.80
2017-05-15T15:58:52.807Z,30.60
2017-05-15T16:01:20.316Z,30.10
2017-05-15T16:03:47.080Z,30.10
2017-05-15T16:06:13.870Z,31.00
2017-05-15T16:08:40.716Z,30.20
2017-05-15T16:11:07.480Z,31.50
2017-05-15T16:13:34.260Z,31.60
2017-05-15T16:16:01.039Z,31.90
2017-05-15T16:18:27.846Z,31.30
2017-05-15T16:20:54.614Z,31.20
2017-05-15T16:23:22.121Z,31.70
2017-05-15T16:25:48.928Z,31.30
2017-05-15T16:28:15.700Z,32.60
2017-05-15T16:30:42.500Z,31.20
2017-05-15T16:33:10.017Z,32.10
2017-05-15T16:35:36.788Z,32.10
2017-05-15T16:38:03.560Z,31.40
2017-05-15T16:40:30.342Z,32.90
2017-05-15T16:42:57.136Z,31.70
2017-05-15T16:45:23.901Z,33.20
2017-05-15T16:47:50.660Z,32.20
2017-05-15T16:50:17.434Z,32.30
2017-05-15T16:52:44.199Z,33.10
2017-05-15T16:55:11.731Z,33.80
2017-05-15T16:57:38.488Z,33.10
2017-05-15T17:00:06.149Z,32.50
2017-05-15T17:02:33.676Z,33.50
2017-05-15T17:05:00.457Z,33.50
2017-05-15T17:07:27.992Z,34.10
2017-05-15T17:09:54.764Z,35.10
2017-05-15T17:12:22.272Z,35.40
2017-05-15T17:14:49.054Z,35.20
2017-05-15T17:17:16.566Z,35.30
2017-05-15T17:19:43.348Z,34.50
2017-05-15T17:22:10.103Z,34.60
2017-05-15T17:24:37.648Z,34.80
2017-05-15T17:27:04.452Z,34.00
2017-05-15T17:29:31.244Z,34.50
2017-05-15T17:31:58.812Z,35.20
2017-05-15T17:34:26.372Z,36.10
2017-05-15T17:36:53.929Z,35.30
2017-05-15T17:39:21.485Z,37.20
2017-05-15T17:41:49.025Z,36.70
2017-05-15T17:44:15.862Z,35.40
2017-05-15T17:46:42.648Z,36.30
2017-05-15T17:49:09.431Z,36.20
2017-05-15T17:51:36.232Z,37.10
2017-05-15T17:54:03.764Z,36.00
2017-05-15T17:56:30.577Z,38.80
2017-05-15T17:58:57.368Z,36.70
2017-05-15T18:01:24.900Z,37.10
2017-05-15T18:03:51.701Z,36.70
2017-05-15T18:06:18.476Z,38.60
2017-05-15T18:08:45.279Z,38.90
2017-05-15T18:11:12.070Z,37.50
2017-05-15T18:13:38.964Z,37.40
2017-05-15T18:16:05.766Z,37.50
2017-05-15T18:18:32.539Z,38.20
2017-05-15T18:20:59.352Z,38.00
2017-05-15T18:23:26.146Z,40.30
2017-05-15T18:25:52.974Z,40.40
2017-05-15T18:28:19.760Z,43.50
2017-05-15T18:30:46.540Z,40.60
2017-05-15T18:33:14.076Z,41.40
2017-05-15T18:35:40.905Z,42.50
2017-05-15T18:38:07.722Z,42.00
2017-05-15T18:40:34.513Z,43.40
2017-05-15T18:43:01.296Z,43.70
2017-05-15T18:45:28.096Z,43.80
2017-05-15T18:47:54.883Z,42.60
2017-05-15T18:50:21.696Z,43.10
2017-05-15T18:52:49.223Z,44.40
2017-05-15T18:55:16.122Z,45.90
2017-05-15T18:57:42.984Z,47.90
2017-05-15T19:00:09.788Z,46.10
2017-05-15T19:02:37.380Z,46.70
2017-05-15T19:05:04.180Z,48.40
2017-05-15T19:07:30.981Z,47.40
2017-05-15T19:09:57.781Z,48.00
2017-05-15T19:12:25.313Z,48.90
2017-05-15T19:14:52.162Z,48.70
2017-05-15T19:17:18.949Z,48.90
2017-05-15T19:19:45.737Z,48.60
2017-05-15T19:22:12.541Z,49.00
2017-05-15T19:24:39.326Z,50.70
2017-05-15T19:27:06.112Z,51.10
2017-05-15T19:29:32.872Z,51.30
2017-05-15T19:31:59.627Z,54.40
2017-05-15T19:34:26.436Z,55.50
2017-05-15T19:36:53.205Z,53.80
2017-05-15T19:39:19.997Z,56.40
2017-05-15T19:41:47.499Z,53.00
2017-05-15T19:44:14.265Z,53.30
2017-05-15T19:46:41.104Z,54.20
2017-05-15T19:49:08.022Z,53.90
2017-05-15T19:51:34.803Z,55.70
2017-05-15T19:54:02.656Z,54.50
2017-05-15T19:56:29.412Z,53.40
2017-05-15T20:01:48.168Z,49.90
2017-05-15T20:04:14.955Z,52.70
2017-05-15T20:06:42.472Z,52.40
2017-05-15T20:09:09.244Z,53.20
2017-05-15T20:11:36.016Z,51.50
2017-05-15T20:14:03.529Z,52.90
2017-05-15T20:16:30.324Z,51.40
2017-05-15T20:18:57.105Z,51.30
2017-05-15T20:21:23.878Z,51.10
2017-05-15T20:23:50.748Z,51.10
2017-05-15T20:26:17.561Z,51.90
2017-05-15T20:28:44.603Z,52.10
2017-05-15T20:31:11.409Z,51.50
2017-05-15T20:33:38.178Z,52.20
2017-05-15T20:36:04.981Z,52.70
2017-05-15T20:38:31.928Z,52.70
2017-05-15T20:40:58.712Z,53.30
2017-05-15T20:43:25.496Z,53.50
2017-05-15T20:45:52.284Z,53.40
2017-05-15T20:48:19.173Z,52.90
2017-05-15T20:50:46.713Z,53.60
2017-05-15T20:53:13.504Z,52.60
2017-05-15T20:55:40.286Z,52.60
2017-05-15T20:58:07.083Z,53.50
2017-05-15T21:00:34.124Z,54.10
2017-05-15T21:03:00.937Z,53.10
2017-05-15T21:05:27.701Z,52.30
2017-05-15T21:07:55.212Z,52.00
2017-05-15T21:10:21.995Z,51.00
2017-05-15T21:12:49.513Z,50.90
2017-05-15T21:15:16.342Z,50.90
2017-05-15T21:17:43.107Z,52.60
2017-05-15T21:20:10.275Z,51.20
2017-05-15T21:22:37.822Z,53.90
2017-05-15T21:25:04.630Z,53.90
2017-05-15T21:27:31.441Z,53.70
2017-05-15T21:29:58.985Z,53.90
2017-05-15T21:32:26.538Z,53.30
2017-05-15T21:34:53.407Z,53.70
2017-05-15T21:37:20.200Z,53.00
2017-05-15T21:39:47.044Z,53.50
2017-05-15T21:42:13.845Z,54.10
2017-05-15T21:44:40.624Z,54.80
2017-05-15T21:47:07.476Z,52.60
2017-05-15T21:49:34.264Z,53.90
2017-05-15T21:52:01.319Z,54.70
2017-05-15T21:54:28.103Z,56.40
2017-05-15T21:56:54.889Z,54.50
2017-05-15T21:59:22.425Z,57.00
2017-05-15T22:01:49.204Z,56.80
2017-05-15T22:04:16.060Z,57.40
2017-05-15T22:06:42.828Z,58.20
2017-05-15T22:09:09.593Z,58.10
2017-05-15T22:11:36.399Z,58.20
2017-05-15T22:14:03.183Z,58.50
2017-05-15T22:16:29.980Z,56.90
2017-05-15T22:18:56.748Z,56.80
2017-05-15T22:21:23.513Z,57.40
2017-05-15T22:23:50.299Z,58.20
2017-05-15T22:26:17.226Z,57.10
2017-05-15T22:28:44.775Z,57.80
2017-05-15T22:31:12.364Z,58.90
2017-05-15T22:33:39.197Z,58.20
2017-05-15T22:36:05.995Z,58.00
2017-05-15T22:38:32.780Z,58.80
2017-05-15T22:40:59.592Z,59.30
2017-05-15T22:43:26.372Z,59.60
2017-05-15T22:45:53.138Z,60.30
2017-05-15T22:48:19.934Z,59.70
2017-05-15T22:50:47.456Z,57.80
2017-05-15T22:53:14.333Z,56.50
2017-05-15T22:55:41.404Z,57.10
2017-05-15T22:58:08.241Z,56.90
2017-05-15T23:00:35.028Z,56.80
2017-05-15T23:03:01.864Z,57.70
2017-05-15T23:05:28.665Z,56.90
2017-05-15T23:07:56.205Z,58.00
2017-05-15T23:10:23.130Z,57.50
2017-05-15T23:12:49.916Z,57.60
2017-05-15T23:15:17.486Z,58.30
2017-05-15T23:17:44.291Z,57.40
2017-05-15T23:20:11.072Z,57.30
2017-05-15T23:22:37.873Z,57.90
2017-05-15T23:25:04.664Z,56.50
2017-05-15T23:27:31.440Z,56.20
2017-05-15T23:29:58.237Z,56.30
2017-05-15T23:32:25.742Z,57.00
2017-05-15T23:34:52.854Z,56.40
2017-05-15T23:37:19.636Z,56.60
2017-05-15T23:39:46.393Z,56.10
2017-05-15T23:42:13.180Z,56.30
2017-05-15T23:44:39.965Z,56.30
2017-05-15T23:47:06.737Z,56.90
2017-05-15T23:49:33.520Z,57.00
2017-05-15T23:52:00.292Z,56.40
2017-05-15T23:54:27.138Z,57.30
2017-05-15T23:56:53.940Z,57.40
2017-05-15T23:59:20.725Z,57.40
